Time;durP1;ratioP1;P1;durP2;ratioP2;P2;SDS_P1;SDS_P2;PMS_P1;PMS_P2;Temp;Humidity;BMP_temperature;BMP_pressure;BME280_temperature;BME280_humidity;BME280_pressure;Samples;Min_cycle;Max_cycle;Signal;HPM_P1;HPM_P2
2023/04/05 00:01:06;;;;;;;9.93;9.03;;;;;;;1.61;64.84;94420.06;4967099;28;20221;-68
2023/04/05 00:03:32;;;;;;;10.03;9.20;;;;;;;1.71;64.25;94408.06;4969089;28;20220;-69
2023/04/05 00:05:58;;;;;;;9.83;8.97;;;;;;;1.62;64.59;94411.31;4970727;28;20243;-69
2023/04/05 00:08:25;;;;;;;9.77;8.87;;;;;;;1.61;64.43;94401.09;4966977;28;20243;-68
2023/04/05 00:10:51;;;;;;;11.00;10.00;;;;;;;1.54;64.88;94404.09;4967485;28;20301;-68
2023/04/05 00:13:17;;;;;;;10.07;9.17;;;;;;;1.69;64.51;94407.34;4962001;28;20231;-68
2023/04/05 00:15:42;;;;;;;11.00;9.90;;;;;;;1.51;64.71;94408.69;4965933;28;20308;-68
2023/04/05 00:18:20;;;;;;;11.47;10.27;;;;;;;1.40;65.33;94412.06;4966914;28;20311;-69
2023/04/05 00:20:49;;;;;;;10.60;9.63;;;;;;;1.46;65.08;94414.22;4965035;28;20193;-68
2023/04/05 00:23:16;;;;;;;10.47;9.57;;;;;;;1.52;65.36;94406.00;4949510;28;20189;-68
2023/04/05 00:25:42;;;;;;;11.13;10.20;;;;;;;1.56;64.89;94398.00;4958390;28;20240;-69
2023/04/05 00:28:08;;;;;;;10.47;9.57;;;;;;;1.65;64.77;94412.88;4969338;28;20222;-69
2023/04/05 00:30:33;;;;;;;10.10;9.20;;;;;;;1.66;64.58;94407.59;4968474;28;20224;-69
2023/04/05 00:32:59;;;;;;;9.80;8.93;;;;;;;1.50;65.31;94402.69;4966236;28;20225;-69
2023/04/05 00:35:28;;;;;;;9.83;8.93;;;;;;;1.58;65.23;94420.28;4971499;28;20176;-68
2023/04/05 00:37:54;;;;;;;8.87;8.17;;;;;;;1.64;64.68;94432.78;4983867;28;20457;-69
2023/04/05 00:40:20;;;;;;;9.37;8.57;;;;;;;1.43;64.64;94411.03;4971282;28;20228;-68
2023/04/05 00:42:46;;;;;;;8.80;8.00;;;;;;;1.48;64.81;94414.94;4971898;28;20232;-69
2023/04/05 00:45:12;;;;;;;8.63;7.90;;;;;;;1.54;64.25;94411.88;5000622;28;20267;-69
2023/04/05 00:47:38;;;;;;;9.00;8.20;;;;;;;1.46;64.86;94416.78;4985727;28;20252;-70
2023/04/05 00:50:05;;;;;;;9.77;8.87;;;;;;;1.33;65.37;94398.72;4971826;28;20212;-69
2023/04/05 00:52:31;;;;;;;8.20;7.50;;;;;;;1.43;64.54;94417.03;4979317;28;20221;-69
2023/04/05 00:54:57;;;;;;;7.80;7.20;;;;;;;1.50;64.30;94417.41;4998672;28;20275;-69
2023/04/05 00:57:23;;;;;;;6.90;6.40;;;;;;;1.41;64.11;94423.25;5002287;28;20232;-69
2023/04/05 00:59:49;;;;;;;7.43;6.83;;;;;;;1.30;64.96;94422.25;4998839;28;20210;-69
2023/04/05 01:02:32;;;;;;;6.97;6.40;;;;;;;1.28;65.10;94416.38;4966586;28;20283;-69
2023/04/05 01:05:08;;;;;;;6.83;6.23;;;;;;;1.40;64.47;94419.03;4965174;28;20279;-69
2023/04/05 01:07:52;;;;;;;6.47;5.93;;;;;;;1.31;64.24;94420.53;4999531;28;20253;-69
2023/04/05 01:10:21;;;;;;;6.23;5.70;;;;;;;1.25;65.04;94432.13;4974744;28;20546;-69
2023/04/05 01:12:47;;;;;;;6.23;5.73;;;;;;;1.28;64.22;94418.13;4983079;28;20224;-68
2023/04/05 01:15:13;;;;;;;5.87;5.37;;;;;;;1.43;63.97;94418.78;4966613;28;20239;-68
2023/04/05 01:17:38;;;;;;;6.30;5.80;;;;;;;1.44;63.96;94415.25;4997308;28;20184;-68
2023/04/05 01:20:10;;;;;;;5.67;5.27;;;;;;;1.33;64.08;94419.44;4969043;28;20263;-68
2023/04/05 01:22:42;;;;;;;5.40;5.00;;;;;;;1.50;63.44;94428.59;5000259;28;20692;-68
2023/04/05 01:25:19;;;;;;;5.40;5.00;;;;;;;1.59;63.44;94426.28;4967095;28;20277;-69
2023/04/05 01:27:57;;;;;;;5.47;5.07;;;;;;;1.16;64.18;94435.38;4981974;28;20307;-68
2023/04/05 01:30:34;;;;;;;5.90;5.40;;;;;;;1.27;63.82;94425.06;4963846;28;20304;-68
2023/04/05 01:33:35;;;;;;;5.10;4.70;;;;;;;1.42;63.58;94430.09;4998919;28;20223;-68
2023/04/05 01:36:11;;;;;;;4.70;4.40;;;;;;;1.50;63.00;94423.44;4954301;28;20303;-68
2023/04/05 01:38:39;;;;;;;5.47;5.07;;;;;;;1.39;63.58;94420.78;4953382;28;20595;-69
2023/04/05 01:41:05;;;;;;;5.10;4.70;;;;;;;1.55;62.77;94428.25;4957090;28;20184;-69
2023/04/05 01:43:30;;;;;;;5.20;4.80;;;;;;;1.49;63.19;94413.97;4953406;28;20228;-68
2023/04/05 01:45:56;;;;;;;5.50;5.10;;;;;;;1.29;64.13;94424.97;4962134;28;20231;-68
2023/04/05 01:48:21;;;;;;;5.77;5.30;;;;;;;1.39;63.95;94419.94;4953729;28;20333;-69
2023/04/05 01:50:47;;;;;;;5.50;5.10;;;;;;;1.29;64.28;94412.84;4957614;28;20224;-68
2023/04/05 01:53:12;;;;;;;4.93;4.53;;;;;;;1.49;63.58;94426.13;4974708;28;20286;-69
2023/04/05 01:55:37;;;;;;;5.50;5.10;;;;;;;1.50;63.13;94436.38;4969782;28;20248;-69
2023/04/05 01:58:03;;;;;;;6.27;5.30;;;;;;;1.54;63.35;94435.19;4972720;28;20247;-69
2023/04/05 02:00:28;;;;;;;5.20;4.80;;;;;;;1.46;63.35;94428.94;4951579;28;20223;-69
2023/04/05 02:02:54;;;;;;;4.63;4.33;;;;;;;1.61;62.71;94424.41;4971490;28;20229;-69
2023/04/05 02:05:19;;;;;;;5.23;4.83;;;;;;;1.47;63.61;94431.41;4988465;28;20354;-68
2023/04/05 02:07:45;;;;;;;5.20;4.80;;;;;;;1.63;63.42;94438.06;4955248;28;20228;-69
2023/04/05 02:10:10;;;;;;;5.67;5.27;;;;;;;1.68;62.85;94430.78;4954250;28;20232;-69
2023/04/05 02:12:36;;;;;;;5.40;5.00;;;;;;;1.60;63.31;94426.16;4960719;28;20234;-69
2023/04/05 02:15:01;;;;;;;5.33;4.93;;;;;;;1.64;63.35;94431.97;4970113;28;20254;-69
2023/04/05 02:17:32;;;;;;;5.20;4.70;;;;;;;1.82;62.58;94438.38;4972521;28;20187;-69
2023/04/05 02:20:01;;;;;;;5.40;4.90;;;;;;;1.93;62.47;94433.22;4965134;28;20238;-69
2023/04/05 02:22:27;;;;;;;5.00;4.60;;;;;;;1.70;62.76;94437.50;4977882;28;20221;-69
2023/04/05 02:24:52;;;;;;;4.50;4.20;;;;;;;1.67;63.20;94429.97;5000832;28;20216;-69
2023/04/05 02:27:18;;;;;;;5.33;4.93;;;;;;;1.46;63.72;94428.94;4970084;28;20224;-69
2023/04/05 02:29:43;;;;;;;5.33;4.93;;;;;;;1.47;63.60;94434.00;4972030;28;20254;-68
2023/04/05 02:32:09;;;;;;;5.07;4.60;;;;;;;1.67;63.34;94435.13;4972377;28;20223;-68
2023/04/05 02:34:37;;;;;;;5.37;4.97;;;;;;;1.61;63.17;94429.59;4992552;28;20717;-68
2023/04/05 02:37:02;;;;;;;5.50;5.00;;;;;;;1.53;63.74;94428.38;4971742;28;20216;-69
2023/04/05 02:39:28;;;;;;;5.40;5.00;;;;;;;1.59;63.79;94441.81;4972015;28;20228;-68
2023/04/05 02:41:55;;;;;;;5.53;5.03;;;;;;;1.46;63.88;94421.16;4970090;28;20195;-69
2023/04/05 02:44:21;;;;;;;5.37;4.97;;;;;;;1.55;63.74;94428.25;5006130;28;20196;-68
2023/04/05 02:46:46;;;;;;;4.97;4.57;;;;;;;1.74;62.71;94420.81;4969433;28;20242;-68
2023/04/05 02:49:12;;;;;;;5.23;4.83;;;;;;;1.73;62.83;94423.50;5000629;28;20260;-68
2023/04/05 02:51:37;;;;;;;5.33;4.93;;;;;;;1.63;63.11;94420.78;4971386;28;20236;-69
2023/04/05 02:54:03;;;;;;;5.57;5.03;;;;;;;1.62;63.25;94423.47;4998389;28;20224;-68
2023/04/05 02:56:29;;;;;;;4.93;4.53;;;;;;;1.61;63.02;94414.03;4962506;28;20287;-68
2023/04/05 02:58:54;;;;;;;5.10;4.70;;;;;;;1.70;62.77;94411.59;4966960;28;20228;-69
2023/04/05 03:01:21;;;;;;;5.60;5.13;;;;;;;1.59;63.36;94432.28;4971117;28;20230;-69
2023/04/05 03:03:46;;;;;;;5.30;4.90;;;;;;;1.43;64.06;94421.38;4970439;28;20228;-68
2023/04/05 03:06:12;;;;;;;5.17;4.77;;;;;;;1.49;63.78;94420.94;4999770;28;20220;-69
2023/04/05 03:08:42;;;;;;;5.53;5.03;;;;;;;1.64;63.38;94419.81;4968919;28;20196;-68
2023/04/05 03:11:09;;;;;;;6.00;5.50;;;;;;;1.75;63.73;94424.22;5001646;28;20227;-67
2023/04/05 03:13:34;;;;;;;5.93;5.43;;;;;;;1.84;63.17;94418.34;4969006;28;20248;-68
2023/04/05 03:16:01;;;;;;;5.73;5.23;;;;;;;1.90;62.43;94417.91;4999322;28;20224;-69
2023/04/05 03:18:28;;;;;;;5.33;4.20;;;;;;;1.55;63.29;94415.28;4969158;28;20225;-69
2023/04/05 03:20:57;;;;;;;5.60;5.13;;;;;;;1.63;63.61;94428.53;4999560;28;20188;-69
2023/04/05 03:23:28;;;;;;;5.07;4.67;;;;;;;1.74;63.27;94432.94;4971316;28;20239;-69
2023/04/05 03:26:03;;;;;;;5.70;5.30;;;;;;;1.63;63.48;94427.69;4964047;28;20228;-69
2023/04/05 03:28:31;;;;;;;5.90;5.40;;;;;;;1.60;63.75;94420.97;4963677;28;20230;-69
2023/04/05 03:30:57;;;;;;;5.70;5.30;;;;;;;1.65;63.56;94420.63;4999797;28;20310;-69
2023/04/05 03:33:22;;;;;;;5.43;4.93;;;;;;;1.66;63.52;94409.34;4971086;28;20220;-70
2023/04/05 03:35:48;;;;;;;5.70;5.30;;;;;;;1.71;63.89;94423.63;4999163;28;20247;-67
2023/04/05 03:38:14;;;;;;;6.10;5.10;;;;;;;1.76;63.58;94418.06;4969850;28;20278;-66
2023/04/05 03:40:39;;;;;;;6.07;5.57;;;;;;;1.76;64.30;94431.03;4964877;28;20227;-67
2023/04/05 03:43:05;;;;;;;5.40;5.00;;;;;;;1.77;64.80;94419.75;4995542;28;20221;-65
2023/04/05 03:45:30;;;;;;;5.47;5.03;;;;;;;1.81;65.18;94434.13;4995598;28;20575;-65
2023/04/05 03:47:57;;;;;;;5.93;5.53;;;;;;;1.75;65.72;94438.00;4965477;28;20228;-65
2023/04/05 03:50:23;;;;;;;6.53;6.03;;;;;;;2.08;64.70;94431.25;4998347;28;20215;-66
2023/04/05 03:52:48;;;;;;;6.10;5.60;;;;;;;1.76;65.32;94439.66;4964639;28;20235;-64
2023/04/05 03:55:15;;;;;;;7.30;6.70;;;;;;;1.68;66.25;94431.59;4998036;28;20234;-66
2023/04/05 03:57:41;;;;;;;7.13;6.43;;;;;;;1.77;65.90;94436.13;4969102;28;20220;-67
2023/04/05 04:00:16;;;;;;;7.20;6.60;;;;;;;1.70;65.94;94447.88;4969003;28;20239;-67
2023/04/05 04:02:47;;;;;;;6.90;6.30;;;;;;;1.85;66.42;94447.69;4969193;28;20222;-64
2023/04/05 04:05:14;;;;;;;7.07;6.50;;;;;;;1.76;66.64;94456.97;4969703;28;20197;-65
2023/04/05 04:07:41;;;;;;;6.90;6.40;;;;;;;1.75;67.27;94453.53;4966762;28;20229;-65
2023/04/05 04:10:09;;;;;;;7.27;6.67;;;;;;;1.86;67.33;94467.50;4953475;28;20270;-65
2023/04/05 04:12:34;;;;;;;7.80;7.10;;;;;;;1.82;67.24;94450.50;4952544;28;20232;-65
2023/04/05 04:15:00;;;;;;;7.40;6.80;;;;;;;1.96;66.93;94452.91;4965791;28;20315;-65
2023/04/05 04:17:27;;;;;;;7.50;6.87;;;;;;;1.88;67.00;94447.47;4949415;28;20386;-65
2023/04/05 04:19:53;;;;;;;7.03;6.43;;;;;;;1.89;66.92;94454.31;4968368;28;20220;-65
2023/04/05 04:22:19;;;;;;;7.50;6.80;;;;;;;1.75;67.68;94450.13;4998013;28;20316;-65
2023/04/05 04:24:49;;;;;;;7.17;6.60;;;;;;;1.85;66.97;94455.47;4969769;28;20255;-65
2023/04/05 04:27:18;;;;;;;6.90;6.30;;;;;;;1.97;66.21;94463.16;4977466;28;20258;-64
2023/04/05 04:29:45;;;;;;;6.67;6.13;;;;;;;1.96;66.19;94453.72;4994242;28;20211;-66
2023/04/05 04:32:12;;;;;;;6.37;5.87;;;;;;;1.78;66.25;94455.09;4995483;28;20272;-63
2023/04/05 04:34:43;;;;;;;6.47;5.97;;;;;;;1.86;66.56;94455.34;4970365;28;20228;-64
2023/04/05 04:37:21;;;;;;;6.73;6.13;;;;;;;1.75;66.86;94456.13;4965864;28;20255;-67
2023/04/05 04:39:47;;;;;;;6.57;6.07;;;;;;;1.91;66.54;94460.22;4964351;28;20232;-65
2023/04/05 04:42:21;;;;;;;7.33;6.73;;;;;;;1.90;66.60;94455.97;4960421;28;20233;-67
2023/04/05 04:44:47;;;;;;;7.23;6.63;;;;;;;2.00;66.15;94462.09;4977554;28;20206;-69
2023/04/05 04:47:16;;;;;;;7.30;6.70;;;;;;;1.94;66.32;94457.38;4994656;28;21032;-68
2023/04/05 04:49:42;;;;;;;7.07;6.47;;;;;;;2.26;65.87;94472.31;4967936;28;20232;-69
2023/04/05 04:52:07;;;;;;;6.33;5.83;;;;;;;1.92;66.14;94454.06;4961741;28;20250;-64
2023/04/05 04:54:35;;;;;;;6.60;6.03;;;;;;;2.05;65.91;94459.19;4969863;28;20224;-68
2023/04/05 04:57:01;;;;;;;6.80;6.30;;;;;;;2.01;66.53;94468.97;4969619;28;20243;-65
2023/04/05 04:59:27;;;;;;;6.57;6.07;;;;;;;2.06;65.46;94459.06;4994254;28;20201;-66
2023/04/05 05:01:52;;;;;;;6.43;5.90;;;;;;;2.05;65.23;94454.81;4965042;28;20274;-64
2023/04/05 05:04:18;;;;;;;4.63;4.23;;;;;;;2.10;64.47;94476.03;4968527;28;20228;-63
2023/04/05 05:06:43;;;;;;;5.00;4.60;;;;;;;2.00;64.90;94462.09;4968958;28;20291;-63
2023/04/05 05:09:09;;;;;;;5.43;4.93;;;;;;;2.01;64.83;94462.97;4999771;28;20232;-63
2023/04/05 05:11:35;;;;;;;4.80;4.40;;;;;;;2.11;63.94;94474.28;4963767;28;20189;-64
2023/04/05 05:14:00;;;;;;;5.27;4.87;;;;;;;2.17;63.42;94461.69;4968429;28;20243;-63
2023/04/05 05:16:26;;;;;;;3.63;3.37;;;;;;;2.23;63.42;94457.00;4966466;28;20270;-65
2023/04/05 05:18:53;;;;;;;3.73;3.43;;;;;;;2.12;64.16;94475.94;4965378;28;20234;-64
2023/04/05 05:21:18;;;;;;;3.67;3.37;;;;;;;2.06;63.72;94477.22;4962213;28;20220;-64
2023/04/05 05:23:44;;;;;;;3.17;2.97;;;;;;;1.70;64.59;94471.19;4971035;28;20192;-65
2023/04/05 05:26:11;;;;;;;3.30;3.10;;;;;;;1.93;64.01;94474.72;4967939;28;20201;-65
2023/04/05 05:28:37;;;;;;;2.53;2.37;;;;;;;1.95;62.82;94471.97;4967625;28;20421;-66
2023/04/05 05:31:03;;;;;;;2.10;2.00;;;;;;;2.10;61.03;94476.03;4964798;28;20232;-66
2023/04/05 05:33:28;;;;;;;2.50;2.30;;;;;;;2.07;61.91;94476.28;4967178;28;20228;-66
2023/04/05 05:35:54;;;;;;;2.53;2.33;;;;;;;2.12;61.57;94475.94;4969232;28;20282;-66
2023/04/05 05:38:20;;;;;;;2.73;2.53;;;;;;;2.03;62.01;94477.44;4982693;28;20184;-66
2023/04/05 05:40:46;;;;;;;2.70;2.50;;;;;;;2.15;61.85;94473.13;4996888;28;20220;-66
2023/04/05 05:43:11;;;;;;;2.60;2.40;;;;;;;2.14;62.07;94471.47;4970306;28;20239;-66
2023/04/05 05:45:37;;;;;;;3.40;3.10;;;;;;;2.23;62.20;94472.56;4968254;28;20231;-65
2023/04/05 05:48:02;;;;;;;3.33;2.93;;;;;;;2.35;61.82;94467.28;4968471;28;20306;-66
2023/04/05 05:50:31;;;;;;;3.60;3.30;;;;;;;2.50;61.41;94470.47;4972744;28;20278;-66
2023/04/05 05:53:00;;;;;;;4.20;3.80;;;;;;;2.56;61.87;94471.75;4972822;28;20367;-65
2023/04/05 05:55:25;;;;;;;4.53;4.13;;;;;;;2.51;61.21;94469.50;4970368;28;20236;-66
2023/04/05 05:57:51;;;;;;;4.00;3.70;;;;;;;2.50;61.43;94454.06;4956396;28;20221;-68
2023/04/05 06:00:18;;;;;;;4.63;4.07;;;;;;;2.60;61.34;94461.03;4972836;28;20235;-67
2023/04/05 06:02:44;;;;;;;4.13;3.73;;;;;;;2.78;60.38;94468.34;4954058;28;20216;-67
2023/04/05 06:05:10;;;;;;;3.07;2.87;;;;;;;2.85;59.41;94470.34;4971684;28;20196;-66
2023/04/05 06:07:36;;;;;;;3.23;2.93;;;;;;;2.83;60.16;94472.28;4969467;28;20223;-65
2023/04/05 06:10:07;;;;;;;3.10;2.90;;;;;;;2.78;60.21;94473.53;4962623;28;20578;-65
2023/04/05 06:12:33;;;;;;;3.97;3.40;;;;;;;2.88;59.67;94477.09;4993361;28;20229;-65
2023/04/05 06:15:00;;;;;;;3.30;3.00;;;;;;;2.80;60.35;94484.63;4968247;28;20290;-66
2023/04/05 06:17:25;;;;;;;3.03;2.83;;;;;;;2.85;59.71;94482.50;4968044;28;20199;-64
2023/04/05 06:19:50;;;;;;;3.80;3.17;;;;;;;3.13;58.52;94477.78;4994706;28;20232;-64
2023/04/05 06:22:17;;;;;;;3.80;3.50;;;;;;;3.06;59.08;94470.47;4963326;28;20237;-64
2023/04/05 06:24:42;;;;;;;2.17;1.97;;;;;;;3.25;56.68;94485.44;4969431;28;20240;-64
2023/04/05 06:27:08;;;;;;;2.33;2.10;;;;;;;3.06;57.54;94483.44;4966166;28;20232;-64
2023/04/05 06:29:33;;;;;;;2.87;2.50;;;;;;;3.15;57.45;94491.47;4969155;28;20216;-66
2023/04/05 06:31:59;;;;;;;3.33;2.50;;;;;;;3.27;56.89;94485.31;4963775;28;20310;-65
2023/04/05 06:34:24;;;;;;;3.40;2.60;;;;;;;3.16;57.45;94485.34;4961565;28;20304;-65
2023/04/05 06:36:50;;;;;;;2.63;2.43;;;;;;;3.28;57.63;94493.00;4966732;28;20231;-65
2023/04/05 06:39:15;;;;;;;4.17;3.20;;;;;;;3.30;57.56;94495.47;4970841;28;20224;-66
2023/04/05 06:41:41;;;;;;;4.07;2.90;;;;;;;3.57;56.72;94483.84;4966580;28;20200;-66
2023/04/05 06:44:06;;;;;;;3.27;2.50;;;;;;;3.65;55.99;94497.06;5000786;28;20188;-66
2023/04/05 06:46:32;;;;;;;3.97;2.70;;;;;;;3.52;55.40;94502.41;4971445;28;20242;-67
2023/04/05 06:48:58;;;;;;;2.73;2.50;;;;;;;3.54;56.58;94498.72;4970426;28;20232;-65
2023/04/05 06:51:25;;;;;;;4.67;3.33;;;;;;;3.66;55.79;94502.16;4967830;28;20311;-63
2023/04/05 06:53:50;;;;;;;5.40;2.10;;;;;;;3.84;54.75;94501.59;4970051;28;20195;-64
2023/04/05 06:56:16;;;;;;;1.73;1.60;;;;;;;3.84;53.97;94505.03;4969790;28;20193;-64
2023/04/05 06:58:42;;;;;;;1.57;1.40;;;;;;;4.05;52.53;94518.06;4970274;28;20235;-64
2023/04/05 07:01:08;;;;;;;1.50;1.40;;;;;;;3.87;53.20;94520.38;4970598;28;20243;-64
2023/04/05 07:03:33;;;;;;;1.63;1.50;;;;;;;3.67;53.60;94519.38;4971897;28;20224;-64
2023/04/05 07:05:59;;;;;;;2.23;1.37;;;;;;;3.67;53.34;94542.78;4969128;28;20227;-64
2023/04/05 07:08:27;;;;;;;2.00;1.80;;;;;;;3.57;53.81;94528.84;4969733;28;20188;-65
2023/04/05 07:10:54;;;;;;;1.83;1.40;;;;;;;3.63;53.41;94533.56;4996338;28;20267;-66
2023/04/05 07:13:21;;;;;;;3.57;1.50;;;;;;;3.52;54.04;94526.63;4998134;28;20224;-66
2023/04/05 07:15:46;;;;;;;1.93;1.60;;;;;;;3.57;53.65;94525.44;4997558;28;20270;-65
2023/04/05 07:18:14;;;;;;;1.77;1.67;;;;;;;3.63;54.28;94530.97;4968376;28;20240;-64
2023/04/05 07:20:40;;;;;;;1.77;1.67;;;;;;;3.68;54.13;94535.81;4998511;28;20246;-68
2023/04/05 07:23:06;;;;;;;2.50;1.63;;;;;;;3.87;52.70;94532.56;4971544;28;20284;-66
2023/04/05 07:25:31;;;;;;;1.60;1.50;;;;;;;3.69;53.00;94533.09;4967197;28;20224;-67
2023/04/05 07:27:57;;;;;;;1.60;1.47;;;;;;;3.65;53.15;94533.47;4967736;28;20244;-69
2023/04/05 07:30:24;;;;;;;1.87;1.73;;;;;;;3.73;53.26;94533.66;4968154;28;20255;-72
2023/04/05 07:32:50;;;;;;;2.03;1.77;;;;;;;3.79;53.77;94533.16;4969942;28;20655;-72
2023/04/05 07:35:16;;;;;;;2.00;1.80;;;;;;;3.89;52.84;94538.47;4965454;28;20231;-71
2023/04/05 07:37:41;;;;;;;2.13;1.93;;;;;;;3.86;53.20;94544.75;4966627;28;20272;-70
2023/04/05 07:40:07;;;;;;;3.23;1.80;;;;;;;3.45;54.53;94541.06;4969731;28;20231;-64
2023/04/05 07:42:32;;;;;;;2.60;2.23;;;;;;;3.58;54.57;94537.47;4996946;28;20225;-71
2023/04/05 07:44:58;;;;;;;2.13;1.93;;;;;;;3.45;54.88;94543.66;4968983;28;20227;-69
2023/04/05 07:47:23;;;;;;;2.47;2.00;;;;;;;3.66;53.32;94551.53;4970124;28;20183;-70
2023/04/05 07:49:49;;;;;;;3.53;1.67;;;;;;;3.63;52.78;94545.75;4977009;28;20274;-67
2023/04/05 07:52:15;;;;;;;2.60;1.60;;;;;;;3.54;51.97;94563.72;4967160;28;20323;-70
2023/04/05 07:54:42;;;;;;;2.87;1.90;;;;;;;3.61;52.55;94556.28;4973324;28;20325;-70
2023/04/05 07:57:09;;;;;;;1.93;1.83;;;;;;;3.83;52.68;94563.19;4965430;28;20224;-70
2023/04/05 07:59:34;;;;;;;1.80;1.70;;;;;;;3.71;52.46;94571.97;4999859;28;20219;-69
2023/04/05 08:02:00;;;;;;;2.10;2.00;;;;;;;3.91;52.07;94557.41;4967414;28;20248;-68
2023/04/05 08:04:25;;;;;;;3.23;2.17;;;;;;;3.94;52.01;94572.75;4967277;28;20230;-70
2023/04/05 08:06:51;;;;;;;2.30;2.10;;;;;;;4.05;51.63;94569.28;4968817;28;20226;-70
2023/04/05 08:09:16;;;;;;;2.77;1.90;;;;;;;3.76;51.61;94564.63;4965503;28;20241;-68
2023/04/05 08:11:42;;;;;;;1.77;1.67;;;;;;;3.79;51.43;94564.38;4968944;28;20192;-68
2023/04/05 08:14:08;;;;;;;2.37;1.57;;;;;;;3.53;52.31;94574.25;4968798;28;20235;-69
2023/04/05 08:16:33;;;;;;;1.90;1.70;;;;;;;3.81;51.89;94572.06;4967318;28;20224;-69
2023/04/05 08:18:59;;;;;;;2.17;1.93;;;;;;;3.43;52.58;94570.72;4993374;28;20247;-69
2023/04/05 08:21:25;;;;;;;2.10;1.90;;;;;;;3.81;52.02;94577.28;4967770;28;20316;-66
2023/04/05 08:23:51;;;;;;;1.90;1.70;;;;;;;3.83;51.63;94584.00;4999599;28;20271;-69
2023/04/05 08:26:16;;;;;;;2.30;1.40;;;;;;;3.92;51.16;94574.63;4970621;28;20260;-69
2023/04/05 08:28:42;;;;;;;1.67;1.57;;;;;;;3.68;52.02;94574.81;4970954;28;20223;-68
2023/04/05 08:31:07;;;;;;;1.87;1.60;;;;;;;3.67;52.22;94587.00;4971223;28;20299;-67
2023/04/05 08:33:33;;;;;;;2.70;1.70;;;;;;;3.72;52.26;94590.06;4969026;28;20227;-68
2023/04/05 08:36:07;;;;;;;2.80;1.80;;;;;;;3.90;52.27;94576.53;4964623;28;20240;-69
2023/04/05 08:38:32;;;;;;;1.80;1.70;;;;;;;3.64;52.94;94583.81;4977343;28;20192;-69
2023/04/05 08:41:19;;;;;;;2.00;1.90;;;;;;;3.65;52.85;94595.84;4963705;28;20223;-69
2023/04/05 08:44:01;;;;;;;2.40;2.20;;;;;;;3.58;52.82;94590.28;4969134;28;20231;-69
2023/04/05 08:46:30;;;;;;;1.80;1.70;;;;;;;4.07;52.35;94603.81;4965700;28;20236;-69
2023/04/05 08:48:57;;;;;;;1.60;1.50;;;;;;;3.92;52.31;94601.47;4968170;28;20233;-70
2023/04/05 08:51:24;;;;;;;1.53;1.43;;;;;;;3.66;53.43;94610.50;4969506;28;20292;-69
2023/04/05 08:53:50;;;;;;;1.40;1.30;;;;;;;3.70;52.61;94602.34;4996817;28;20220;-69
2023/04/05 08:56:23;;;;;;;2.93;2.73;;;;;;;3.57;52.52;94606.84;4970191;28;20242;-69
2023/04/05 08:58:59;;;;;;;2.50;2.30;;;;;;;3.73;53.41;94606.47;4998694;28;20359;-69
2023/04/05 09:01:28;;;;;;;2.73;2.10;;;;;;;3.88;53.71;94609.66;4987060;28;20278;-68
2023/04/05 09:03:57;;;;;;;2.43;1.80;;;;;;;4.00;53.33;94613.06;4971478;28;20232;-69
2023/04/05 09:06:23;;;;;;;2.23;2.03;;;;;;;4.02;53.68;94621.56;4956088;28;20231;-68
2023/04/05 09:08:48;;;;;;;2.70;2.50;;;;;;;3.89;54.91;94606.94;4971732;28;20196;-69
2023/04/05 09:11:15;;;;;;;2.73;2.53;;;;;;;4.14;53.99;94616.22;5000117;28;20200;-68
2023/04/05 09:13:41;;;;;;;2.03;1.90;;;;;;;4.11;52.32;94613.84;4963981;28;20225;-69
2023/04/05 09:16:07;;;;;;;2.57;2.37;;;;;;;4.24;52.52;94616.28;5000799;28;20308;-68
2023/04/05 09:18:32;;;;;;;2.67;2.40;;;;;;;4.14;52.62;94611.03;4982403;28;20232;-68
2023/04/05 09:21:04;;;;;;;3.53;2.30;;;;;;;4.18;53.60;94616.78;4965795;28;20285;-70
2023/04/05 09:23:32;;;;;;;4.80;2.43;;;;;;;4.28;52.58;94619.50;4963705;28;20185;-69
2023/04/05 09:25:58;;;;;;;2.33;2.13;;;;;;;4.44;52.08;94606.91;4974809;28;20252;-69
2023/04/05 09:28:38;;;;;;;5.30;2.87;;;;;;;4.11;53.24;94611.25;4972065;28;20251;-65
2023/04/05 09:31:04;;;;;;;3.87;2.93;;;;;;;4.49;53.32;94611.72;4964983;28;20225;-64
2023/04/05 09:33:30;;;;;;;2.50;2.30;;;;;;;4.80;50.92;94602.22;4970030;28;20223;-68
2023/04/05 09:35:55;;;;;;;2.63;2.43;;;;;;;4.60;51.28;94601.25;4972282;28;20286;-66
2023/04/05 09:38:41;;;;;;;3.97;2.37;;;;;;;4.61;51.79;94598.53;4972078;28;20177;-67
2023/04/05 09:41:09;;;;;;;3.80;2.20;;;;;;;4.15;52.90;94602.25;4970562;28;20212;-67
2023/04/05 09:43:39;;;;;;;2.20;2.10;;;;;;;4.54;51.98;94596.53;4998104;28;20307;-69
2023/04/05 09:46:05;;;;;;;2.40;2.20;;;;;;;4.56;51.83;94594.66;4969175;28;20213;-68
2023/04/05 09:48:48;;;;;;;1.93;1.83;;;;;;;4.73;50.90;94591.50;4968683;28;20225;-68
2023/04/05 09:51:17;;;;;;;2.30;2.10;;;;;;;4.91;50.53;94588.31;4968378;28;20231;-68
2023/04/05 09:54:08;;;;;;;2.20;2.10;;;;;;;5.03;49.56;94610.75;4973078;28;20201;-69
2023/04/05 09:56:36;;;;;;;3.37;2.60;;;;;;;5.02;50.25;94602.06;4970417;28;20191;-67
2023/04/05 09:59:09;;;;;;;2.70;2.07;;;;;;;4.92;50.17;94600.34;4974474;28;20220;-68
2023/04/05 10:01:41;;;;;;;2.43;2.27;;;;;;;4.84;49.83;94594.03;4998722;28;20232;-68
2023/04/05 10:04:07;;;;;;;3.77;2.30;;;;;;;5.00;49.34;94600.56;4972081;28;20246;-69
2023/04/05 10:06:41;;;;;;;2.60;2.40;;;;;;;5.00;49.11;94595.38;4974630;28;20227;-69
2023/04/05 10:09:08;;;;;;;3.70;2.30;;;;;;;4.93;48.23;94589.00;4961489;28;20234;-68
2023/04/05 10:11:35;;;;;;;2.83;2.63;;;;;;;5.17;48.27;94594.75;4982329;28;20192;-67
2023/04/05 10:14:03;;;;;;;2.80;2.60;;;;;;;4.99;48.13;94575.47;4971170;28;20223;-67
2023/04/05 10:16:32;;;;;;;3.17;2.93;;;;;;;4.56;48.81;94599.84;4969602;28;20248;-68
2023/04/05 10:18:57;;;;;;;3.33;3.03;;;;;;;4.57;48.97;94617.13;4969637;28;20224;-67
2023/04/05 10:21:28;;;;;;;3.57;3.27;;;;;;;4.68;48.26;94611.03;4971769;28;20215;-67
2023/04/05 10:24:14;;;;;;;3.77;3.47;;;;;;;4.61;47.71;94606.34;5001187;28;20196;-68
2023/04/05 10:26:47;;;;;;;3.50;3.20;;;;;;;4.77;47.41;94602.47;4973241;28;20184;-68
2023/04/05 10:29:23;;;;;;;3.20;3.00;;;;;;;4.63;47.21;94606.22;4960236;28;20216;-69
2023/04/05 10:31:54;;;;;;;4.20;3.43;;;;;;;4.77;46.92;94611.09;4967264;28;20714;-70
2023/04/05 10:34:38;;;;;;;5.10;4.00;;;;;;;4.98;46.63;94603.28;4965855;28;20269;-69
2023/04/05 10:37:04;;;;;;;3.43;3.20;;;;;;;4.75;47.40;94589.56;4969779;28;20255;-69
2023/04/05 10:39:33;;;;;;;3.97;3.60;;;;;;;4.88;46.66;94599.81;4971013;28;20255;-69
2023/04/05 10:42:14;;;;;;;3.80;3.50;;;;;;;5.18;46.04;94608.63;4968173;28;20236;-69
2023/04/05 10:44:44;;;;;;;4.10;3.80;;;;;;;5.03;46.31;94610.75;4972282;28;20203;-70
2023/04/05 10:47:13;;;;;;;3.90;3.60;;;;;;;5.23;46.26;94615.09;4974174;28;20299;-70
2023/04/05 10:49:42;;;;;;;3.83;3.53;;;;;;;5.25;46.40;94594.94;4968277;28;20232;-69
2023/04/05 10:52:08;;;;;;;4.00;3.63;;;;;;;5.24;46.11;94610.72;4968153;28;20240;-69
2023/04/05 10:54:35;;;;;;;4.67;3.57;;;;;;;5.26;45.74;94621.81;4986428;28;20238;-69
2023/04/05 10:57:05;;;;;;;3.67;3.37;;;;;;;5.40;45.25;94612.84;4976538;28;20315;-69
2023/04/05 10:59:32;;;;;;;4.50;4.10;;;;;;;5.13;46.36;94624.63;5001434;28;20183;-67
2023/04/05 11:01:58;;;;;;;4.57;3.70;;;;;;;4.86;47.12;94620.78;4967999;28;20240;-70
2023/04/05 11:04:23;;;;;;;5.27;4.40;;;;;;;5.15;47.27;94619.31;4971265;28;20236;-68
2023/04/05 11:07:12;;;;;;;3.93;3.63;;;;;;;5.28;46.51;94612.09;4998951;28;20251;-69
2023/04/05 11:09:48;;;;;;;4.17;3.87;;;;;;;5.33;46.06;94619.53;4972856;28;20232;-70
2023/04/05 11:12:14;;;;;;;5.33;4.03;;;;;;;4.97;47.36;94627.72;4986023;28;20275;-69
2023/04/05 11:14:40;;;;;;;4.57;4.20;;;;;;;5.12;46.89;94616.97;4968989;28;20192;-70
2023/04/05 11:17:26;;;;;;;4.33;4.03;;;;;;;5.38;45.75;94638.22;4970503;28;20321;-69
2023/04/05 11:20:02;;;;;;;5.00;4.50;;;;;;;5.16;46.39;94613.97;4971407;28;20208;-67
2023/04/05 11:22:28;;;;;;;5.00;4.50;;;;;;;5.24;46.28;94628.97;4963141;28;20224;-69
2023/04/05 11:25:01;;;;;;;5.00;4.60;;;;;;;5.43;45.89;94642.09;4970195;28;20224;-68
2023/04/05 11:27:27;;;;;;;5.03;3.63;;;;;;;5.36;45.80;94627.91;4998798;28;20220;-69
2023/04/05 11:29:54;;;;;;;4.73;4.30;;;;;;;5.08;46.54;94629.44;4979398;28;20248;-68
2023/04/05 11:32:20;;;;;;;4.23;3.93;;;;;;;5.01;46.24;94629.09;4969846;28;20255;-70
2023/04/05 11:34:58;;;;;;;4.60;4.20;;;;;;;5.05;46.55;94630.50;4966051;28;20294;-68
2023/04/05 11:37:54;;;;;;;4.40;4.00;;;;;;;5.25;46.09;94628.00;4961511;28;20244;-69
2023/04/05 11:40:33;;;;;;;4.57;4.23;;;;;;;5.36;45.53;94627.09;4965252;28;20328;-69
2023/04/05 11:43:08;;;;;;;4.40;4.00;;;;;;;5.45;45.31;94629.78;4972586;28;20348;-69
2023/04/05 11:45:35;;;;;;;4.77;4.37;;;;;;;5.57;44.99;94627.06;4996417;28;20250;-68